Time;durP1;ratioP1;P1;durP2;ratioP2;P2;SDS_P1;SDS_P2;PMS_P1;PMS_P2;Temp;Humidity;BMP_temperature;BMP_pressure;BME280_temperature;BME280_humidity;BME280_pressure;Samples;Min_cycle;Max_cycle;Signal;HPM_P1;HPM_P2
2023/06/27 00:00:23;;;;;;;5.15;2.95;;;24.90;1.00;;;;;;5216675;22;20021;-72
2023/06/27 00:03:00;;;;;;;3.78;2.67;;;24.90;99.90;;;;;;5057081;28;20051;-73
2023/06/27 00:05:35;;;;;;;3.13;2.25;;;24.90;99.90;;;;;;5141337;28;20362;-73
2023/06/27 00:08:09;;;;;;;;;;;25.00;99.90;;;;;;5182780;28;20052;-74
2023/06/27 00:10:42;;;;;;;4.13;3.13;;;24.90;99.90;;;;;;5215403;28;20118;-71
2023/06/27 00:13:16;;;;;;;3.13;2.57;;;24.90;99.90;;;;;;5084951;28;20381;-72
2023/06/27 00:15:53;;;;;;;;;;;24.90;99.90;;;;;;5078519;29;20265;-71
2023/06/27 00:18:34;;;;;;;3.40;2.58;;;24.90;99.90;;;;;;5080333;29;20402;-71
2023/06/27 00:21:07;;;;;;;4.47;3.00;;;24.90;99.90;;;;;;5064070;29;20492;-71
2023/06/27 00:23:39;;;;;;;4.17;2.93;;;24.80;99.90;;;;;;5080202;28;20032;-69
2023/06/27 00:26:13;;;;;;;5.93;3.03;;;24.80;99.90;;;;;;5079252;29;20079;-71
2023/06/27 00:28:44;;;;;;;;;;;24.70;99.90;;;;;;5083675;29;20043;-71
2023/06/27 00:31:16;;;;;;;4.55;2.85;;;24.70;99.90;;;;;;5177993;28;19914;-71
2023/06/27 00:33:48;;;;;;;4.00;3.05;;;24.40;1.00;;;;;;5089447;28;20046;-70
2023/06/27 00:36:19;;;;;;;6.57;3.28;;;23.70;1.00;;;;;;5168858;28;20033;-71
2023/06/27 00:38:54;;;;;;;4.22;3.35;;;23.40;1.00;;;;;;5097082;28;20083;-70
2023/06/27 00:41:27;;;;;;;3.92;2.85;;;23.40;1.00;;;;;;5120240;28;20051;-67
2023/06/27 00:44:01;;;;;;;4.23;3.37;;;23.40;1.00;;;;;;5120734;28;20038;-69
2023/06/27 00:46:40;;;;;;;4.18;3.10;;;23.60;1.00;;;;;;5178081;28;20030;-69
2023/06/27 00:49:14;;;;;;;5.30;3.35;;;23.40;1.00;;;;;;5128477;28;20036;-68
2023/06/27 00:51:51;;;;;;;5.82;3.45;;;22.60;1.00;;;;;;5095523;28;20035;-71
2023/06/27 00:54:23;;;;;;;6.00;3.40;;;21.70;1.00;;;;;;5143951;28;20046;-72
2023/06/27 00:56:54;;;;;;;5.18;3.28;;;21.20;1.00;;;;;;5061764;29;20055;-71
2023/06/27 00:59:29;;;;;;;4.82;3.13;;;21.10;1.00;;;;;;5077405;28;20039;-72
2023/06/27 01:02:03;;;;;;;5.82;4.22;;;21.10;1.00;;;;;;5107088;23;20058;-86
2023/06/27 01:04:34;;;;;;;6.07;3.95;;;21.20;99.90;;;;;;5094240;28;20040;-85
2023/06/27 01:07:26;;;;;;;3.72;3.35;;;21.40;1.00;;;;;;5082354;29;20034;-85
2023/06/27 01:10:05;;;;;;;4.57;3.42;;;21.50;1.00;;;;;;5107784;28;20054;-84
2023/06/27 01:13:00;;;;;;;5.70;3.72;;;21.60;1.00;;;;;;5110645;28;20042;-84
2023/06/27 01:15:32;;;;;;;;;;;21.70;1.00;;;;;;5110657;28;20040;-84
2023/06/27 01:18:05;;;;;;;7.35;3.63;;;21.70;99.90;;;;;;5108674;29;19907;-84
2023/06/27 01:20:37;;;;;;;5.88;3.47;;;21.70;99.90;;;;;;5104710;28;20047;-85
2023/06/27 01:23:19;;;;;;;4.63;3.20;;;21.70;99.90;;;;;;5097023;28;20036;-85
2023/06/27 01:26:01;;;;;;;5.32;3.40;;;21.70;99.90;;;;;;5097446;29;20038;-85
2023/06/27 01:28:36;;;;;;;4.00;3.28;;;21.80;99.90;;;;;;5095929;29;20327;-84
2023/06/27 01:31:11;;;;;;;4.55;3.20;;;21.90;99.90;;;;;;5097730;28;20099;-85
2023/06/27 01:33:51;;;;;;;6.28;4.13;;;21.80;1.00;;;;;;5098071;28;20032;-86
2023/06/27 01:36:35;;;;;;;6.32;3.63;;;21.20;99.90;;;;;;5097617;28;20039;-86
2023/06/27 01:39:15;;;;;;;4.72;3.42;;;20.50;1.00;;;;;;5096974;28;20032;-87
2023/06/27 01:41:51;;;;;;;6.72;4.03;;;20.00;49.60;;;;;;5097356;28;20032;-85
2023/06/27 01:44:26;;;;;;;5.10;4.18;;;19.70;99.90;;;;;;5097479;28;20032;-85
2023/06/27 01:46:58;;;;;;;6.53;3.97;;;19.60;99.90;;;;;;5096819;28;20036;-86
2023/06/27 01:49:35;;;;;;;5.43;4.07;;;19.50;99.90;;;;;;5096054;29;20036;-85
2023/06/27 01:55:36;;;;;;;6.78;3.95;;;19.50;99.90;;;;;;5095449;29;20028;-85
2023/06/27 01:58:07;;;;;;;7.78;4.60;;;19.60;99.90;;;;;;5098173;28;20027;-85
2023/06/27 02:00:39;;;;;;;6.40;4.50;;;19.70;99.90;;;;;;5096752;28;20028;-84
2023/06/27 02:03:29;;;;;;;5.13;3.90;;;19.90;72.70;;;;;;5117200;29;20027;-87
2023/06/27 02:06:03;;;;;;;4.53;3.90;;;20.00;81.40;;;;;;5093515;28;20040;-88
2023/06/27 02:08:40;;;;;;;6.70;3.95;;;19.80;99.90;;;;;;5096224;29;20040;-86
2023/06/27 02:11:11;;;;;;;5.43;3.80;;;19.50;99.90;;;;;;5095220;29;20036;-85
2023/06/27 02:13:43;;;;;;;6.05;4.10;;;19.40;99.90;;;;;;5098402;28;20024;-86
2023/06/27 02:16:19;;;;;;;5.65;4.28;;;19.30;99.90;;;;;;5106097;28;20051;-85
2023/06/27 02:18:51;;;;;;;7.68;4.82;;;19.40;99.90;;;;;;5108018;28;20039;-84
2023/06/27 02:21:26;;;;;;;5.75;4.65;;;19.30;99.90;;;;;;5099431;29;20032;-88
2023/06/27 02:24:00;;;;;;;4.93;3.83;;;19.30;99.90;;;;;;5099823;28;20034;-85
2023/06/27 02:26:31;;;;;;;;;;;19.30;99.90;;;;;;5098952;28;20024;-85
2023/06/27 02:29:02;;;;;;;5.85;4.30;;;19.30;99.90;;;;;;5096173;29;20189;-86
2023/06/27 02:31:34;;;;;;;7.57;4.47;;;19.30;99.90;;;;;;5096991;28;20348;-85
2023/06/27 02:34:05;;;;;;;4.90;4.03;;;19.40;99.90;;;;;;5096355;28;20032;-88
2023/06/27 02:40:05;;;;;;;5.65;3.90;;;19.60;99.90;;;;;;5095046;29;20028;-85
2023/06/27 02:42:37;;;;;;;5.05;4.05;;;19.60;99.90;;;;;;5096787;28;20032;-86
2023/06/27 02:45:09;;;;;;;5.78;4.43;;;19.80;99.90;;;;;;5083520;28;20047;-85
2023/06/27 02:47:43;;;;;;;5.25;3.95;;;19.90;99.90;;;;;;5100401;28;20036;-85
2023/06/27 02:50:33;;;;;;;5.60;3.83;;;19.90;99.90;;;;;;5096906;28;20052;-85
2023/06/27 02:53:12;;;;;;;5.00;4.50;;;19.90;99.90;;;;;;5084025;28;20035;-85
2023/06/27 02:55:47;;;;;;;6.32;4.28;;;19.90;88.20;;;;;;5100176;29;20032;-86
2023/06/27 02:58:21;;;;;;;4.88;4.07;;;20.00;90.00;;;;;;5105325;28;20032;-87
2023/06/27 03:00:55;;;;;;;5.88;3.85;;;20.00;99.90;;;;;;5110173;28;20035;-86
2023/06/27 03:03:32;;;;;;;6.55;3.83;;;19.60;99.90;;;;;;5123350;29;20036;-85
2023/06/27 03:06:25;;;;;;;6.03;4.07;;;19.40;99.90;;;;;;5108286;29;20050;-88
2023/06/27 03:08:59;;;;;;;6.20;4.20;;;19.10;99.90;;;;;;5112202;28;20042;-87
2023/06/27 03:11:35;;;;;;;7.22;4.28;;;19.00;99.90;;;;;;5093165;28;20032;-88
2023/06/27 03:14:18;;;;;;;7.60;4.38;;;18.90;99.90;;;;;;5093717;29;20032;-87
2023/06/27 03:16:54;;;;;;;4.60;3.83;;;18.80;99.90;;;;;;5100234;28;20327;-87
2023/06/27 03:19:28;;;;;;;5.97;4.30;;;18.70;99.90;;;;;;5105231;28;20059;-86
2023/06/27 03:22:00;;;;;;;;;;;18.60;99.90;;;;;;5112658;28;20036;-87
2023/06/27 03:24:41;;;;;;;5.40;4.38;;;18.60;99.90;;;;;;5106680;28;19903;-87
2023/06/27 03:27:17;;;;;;;5.57;4.20;;;18.50;99.90;;;;;;5100030;29;20036;-87
2023/06/27 03:29:51;;;;;;;5.35;4.47;;;18.40;99.90;;;;;;5100997;28;20038;-86
2023/06/27 03:32:23;;;;;;;6.55;4.60;;;18.40;99.90;;;;;;5100067;28;20032;-86
2023/06/27 03:34:55;;;;;;;7.93;5.18;;;18.40;99.90;;;;;;5099466;28;20299;-86
2023/06/27 03:37:27;;;;;;;7.55;5.03;;;18.40;99.90;;;;;;5098390;28;20036;-86
2023/06/27 03:39:59;;;;;;;6.15;4.35;;;18.30;99.90;;;;;;5097295;28;20360;-86
2023/06/27 03:42:33;;;;;;;6.43;5.20;;;18.30;99.90;;;;;;5097030;28;20036;-87
2023/06/27 03:45:08;;;;;;;7.45;5.47;;;18.30;99.90;;;;;;5096583;28;20036;-85
2023/06/27 03:47:42;;;;;;;5.13;4.40;;;18.40;99.90;;;;;;5095032;29;20032;-87
2023/06/27 03:50:18;;;;;;;7.28;4.50;;;18.50;99.90;;;;;;5084421;28;20033;-87
2023/06/27 03:52:49;;;;;;;5.25;4.05;;;18.60;99.90;;;;;;5095759;28;20028;-86
2023/06/27 03:55:23;;;;;;;8.48;5.13;;;18.70;99.90;;;;;;5095725;28;20221;-86
2023/06/27 03:57:55;;;;;;;6.55;4.82;;;18.70;99.90;;;;;;5080161;28;20040;-85
2023/06/27 04:00:26;;;;;;;6.72;5.13;;;18.80;99.90;;;;;;5095703;28;20028;-86
2023/06/27 04:03:00;;;;;;;9.40;4.75;;;18.80;99.90;;;;;;5095412;28;20048;-84
2023/06/27 04:05:34;;;;;;;5.38;4.35;;;18.90;99.90;;;;;;5095681;28;20036;-85
2023/06/27 04:08:08;;;;;;;7.38;4.50;;;18.90;99.90;;;;;;5095435;28;20348;-85
2023/06/27 04:10:42;;;;;;;;;;;19.00;99.90;;;;;;5095958;28;20040;-84
2023/06/27 04:13:14;;;;;;;4.80;4.03;;;19.10;99.90;;;;;;5094918;29;19903;-84
2023/06/27 04:15:52;;;;;;;5.88;4.75;;;19.20;99.90;;;;;;5098406;28;20039;-84
2023/06/27 04:18:24;;;;;;;5.72;4.30;;;19.20;99.90;;;;;;5098415;28;20032;-87
2023/06/27 04:20:57;;;;;;;6.32;4.60;;;19.30;99.90;;;;;;5098258;28;20028;-84
2023/06/27 04:23:31;;;;;;;6.10;4.60;;;19.40;99.90;;;;;;5102965;28;20032;-86
2023/06/27 04:26:07;;;;;;;5.80;4.75;;;19.40;99.90;;;;;;5098461;28;20028;-86
2023/06/27 04:28:39;;;;;;;6.75;5.00;;;19.40;99.90;;;;;;5099016;28;20028;-86
2023/06/27 04:31:10;;;;;;;6.00;3.92;;;19.50;99.90;;;;;;5096846;29;20032;-87
2023/06/27 04:33:44;;;;;;;6.07;4.45;;;19.50;99.90;;;;;;5098271;28;20032;-86
2023/06/27 04:36:20;;;;;;;6.05;4.15;;;19.70;99.90;;;;;;5098233;28;20025;-87
2023/06/27 04:38:52;;;;;;;6.00;4.30;;;19.70;99.90;;;;;;5099452;28;20032;-87
2023/06/27 04:41:28;;;;;;;7.57;4.57;;;19.70;99.90;;;;;;5104168;29;20036;-87
2023/06/27 04:44:01;;;;;;;5.13;4.38;;;19.70;99.90;;;;;;5105069;28;20046;-85
2023/06/27 04:46:35;;;;;;;6.55;4.60;;;19.70;99.90;;;;;;5086467;29;20038;-86
2023/06/27 04:49:12;;;;;;;5.40;3.95;;;19.70;99.90;;;;;;5095193;28;20329;-84
2023/06/27 04:51:47;;;;;;;6.63;3.90;;;19.70;99.90;;;;;;5083125;29;20348;-85
2023/06/27 04:54:19;;;;;;;7.63;4.57;;;19.70;99.90;;;;;;5099557;28;20225;-87
2023/06/27 04:56:50;;;;;;;5.18;3.67;;;19.70;99.90;;;;;;5077120;28;20043;-86
2023/06/27 04:59:22;;;;;;;6.13;4.30;;;19.70;99.90;;;;;;5101899;29;20028;-85
2023/06/27 05:02:09;;;;;;;4.32;3.50;;;19.70;99.90;;;;;;5131037;23;20038;-75
2023/06/27 05:04:40;;;;;;;5.38;3.85;;;19.70;99.90;;;;;;5136031;28;20064;-75
2023/06/27 05:07:12;;;;;;;6.82;3.45;;;19.60;99.90;;;;;;5173738;28;20023;-75
2023/06/27 05:09:43;;;;;;;5.22;3.55;;;19.70;51.10;;;;;;5099689;29;20046;-75
2023/06/27 05:12:17;;;;;;;4.38;2.95;;;19.60;18.50;;;;;;5097520;29;20040;-74
2023/06/27 05:14:56;;;;;;;4.60;3.25;;;19.60;14.20;;;;;;5097570;29;20324;-74
2023/06/27 05:17:30;;;;;;;7.32;3.65;;;19.60;1.00;;;;;;5096214;29;20031;-75
2023/06/27 05:20:01;;;;;;;9.25;3.53;;;19.70;1.00;;;;;;5159107;28;20061;-75
2023/06/27 05:22:32;;;;;;;3.38;3.05;;;19.70;1.00;;;;;;5097775;29;20074;-74
2023/06/27 05:25:04;;;;;;;3.53;2.85;;;19.70;1.00;;;;;;5096429;29;20196;-75
2023/06/27 05:27:37;;;;;;;3.97;3.13;;;19.80;1.00;;;;;;5099709;28;20043;-75
2023/06/27 05:30:09;;;;;;;5.35;2.92;;;19.80;1.00;;;;;;5161755;28;20038;-74
2023/06/27 05:32:40;;;;;;;4.28;3.25;;;19.90;1.00;;;;;;5097909;29;20032;-74
2023/06/27 05:35:12;;;;;;;3.70;2.63;;;19.90;1.00;;;;;;5099489;28;20032;-75
2023/06/27 05:37:46;;;;;;;4.75;3.53;;;19.90;1.00;;;;;;5103227;29;20023;-74
2023/06/27 05:40:20;;;;;;;3.92;2.97;;;19.90;1.00;;;;;;5184386;28;20051;-74
2023/06/27 05:42:54;;;;;;;3.22;2.70;;;19.80;1.00;;;;;;5101022;29;20039;-73
2023/06/27 05:45:27;;;;;;;3.60;2.70;;;19.90;1.00;;;;;;5099174;29;20032;-74
2023/06/27 05:48:04;;;;;;;4.03;2.80;;;19.90;1.00;;;;;;5143965;28;20271;-73
2023/06/27 05:50:35;;;;;;;4.18;2.50;;;19.90;1.00;;;;;;5164621;28;20035;-73
2023/06/27 05:53:07;;;;;;;6.43;3.05;;;19.90;1.00;;;;;;5102571;29;20039;-73
2023/06/27 05:55:39;;;;;;;5.47;2.92;;;19.90;1.00;;;;;;5167453;28;20035;-73
2023/06/27 05:58:10;;;;;;;3.75;2.42;;;19.90;1.00;;;;;;5131526;28;20031;-74
2023/06/27 06:00:41;;;;;;;4.70;2.80;;;19.90;1.00;;;;;;5186832;28;20024;-73
2023/06/27 06:03:14;;;;;;;4.65;2.45;;;19.90;1.00;;;;;;5100219;29;20374;-73
2023/06/27 06:05:47;;;;;;;4.75;2.53;;;19.90;1.00;;;;;;5157990;28;20049;-73
2023/06/27 06:08:19;;;;;;;3.65;3.03;;;19.90;1.00;;;;;;5156470;28;20044;-73
2023/06/27 06:10:51;;;;;;;3.47;2.65;;;20.00;99.90;;;;;;5161305;28;20040;-74
2023/06/27 06:13:22;;;;;;;4.55;2.50;;;19.90;99.90;;;;;;5104396;28;20033;-74
2023/06/27 06:15:53;;;;;;;3.35;2.47;;;19.90;1.00;;;;;;5166416;28;20044;-74
2023/06/27 06:18:24;;;;;;;8.35;2.50;;;20.00;99.90;;;;;;5105807;29;20130;-73
2023/06/27 06:20:56;;;;;;;4.20;2.05;;;20.10;99.90;;;;;;5119918;28;20046;-71
2023/06/27 06:23:33;;;;;;;2.42;2.20;;;20.10;99.90;;;;;;5113251;28;20036;-74
2023/06/27 06:26:04;;;;;;;2.50;2.15;;;20.10;99.90;;;;;;5099828;29;20042;-74
2023/06/27 06:28:38;;;;;;;3.50;2.13;;;20.20;99.90;;;;;;5160099;28;20310;-74
2023/06/27 06:31:14;;;;;;;5.85;2.85;;;20.30;99.90;;;;;;5163628;28;20052;-74
2023/06/27 06:33:47;;;;;;;3.35;2.58;;;20.30;1.00;;;;;;5181513;28;20717;-73
2023/06/27 06:36:19;;;;;;;4.10;2.72;;;20.30;1.00;;;;;;5100910;29;20070;-74
2023/06/27 06:38:50;;;;;;;3.30;2.47;;;20.40;1.00;;;;;;5103866;29;20216;-74
2023/06/27 06:41:22;;;;;;;4.25;2.28;;;20.40;1.00;;;;;;5175769;28;20052;-74
2023/06/27 06:43:56;;;;;;;3.10;2.05;;;20.30;1.00;;;;;;5155310;28;20036;-75
2023/06/27 06:46:27;;;;;;;5.53;2.38;;;20.40;1.00;;;;;;5114833;28;20438;-74
2023/06/27 06:48:58;;;;;;;3.03;2.33;;;20.60;1.00;;;;;;5166892;28;20042;-73
2023/06/27 06:51:30;;;;;;;2.83;2.35;;;20.40;1.00;;;;;;5128812;28;20386;-75
2023/06/27 06:54:01;;;;;;;3.28;2.30;;;20.60;99.90;;;;;;5159362;28;20024;-75
2023/06/27 06:56:33;;;;;;;3.53;2.15;;;20.40;99.90;;;;;;5174103;28;20045;-74
2023/06/27 06:59:06;;;;;;;3.92;2.03;;;20.40;1.00;;;;;;5163292;28;20043;-74
2023/06/27 07:01:37;;;;;;;2.85;2.10;;;20.60;99.90;;;;;;5172278;28;20053;-75
2023/06/27 07:04:10;;;;;;;2.38;2.13;;;20.80;99.90;;;;;;5162302;28;20040;-74
2023/06/27 07:06:42;;;;;;;3.50;2.20;;;21.00;99.90;;;;;;5189918;28;20049;-74
2023/06/27 07:09:13;;;;;;;8.52;2.08;;;21.30;1.00;;;;;;5186434;28;20056;-74
2023/06/27 07:11:44;;;;;;;3.08;2.20;;;21.40;1.00;;;;;;5151099;28;20378;-75
2023/06/27 07:14:17;;;;;;;1.92;1.73;;;21.40;1.00;;;;;;5114899;28;20502;-75
2023/06/27 07:16:50;;;;;;;4.10;2.15;;;21.30;1.00;;;;;;5171567;28;20053;-75
2023/06/27 07:19:21;;;;;;;2.97;2.13;;;21.20;1.00;;;;;;5192225;28;20178;-74
2023/06/27 07:21:55;;;;;;;3.97;2.20;;;21.30;99.90;;;;;;5186781;28;20027;-74
2023/06/27 07:24:26;;;;;;;4.10;2.43;;;21.50;99.90;;;;;;5195897;28;20037;-74
2023/06/27 07:27:00;;;;;;;2.72;2.28;;;21.60;99.90;;;;;;5175399;28;20141;-74
2023/06/27 07:29:33;;;;;;;3.08;1.98;;;21.40;99.90;;;;;;5168192;28;20088;-75
2023/06/27 07:32:09;;;;;;;2.78;2.33;;;21.50;99.90;;;;;;5140987;28;20035;-73
2023/06/27 07:34:40;;;;;;;3.38;2.42;;;21.50;99.90;;;;;;5192817;28;20041;-74
2023/06/27 07:37:14;;;;;;;2.97;2.40;;;21.50;50.00;;;;;;5140215;28;20036;-74
2023/06/27 07:39:45;;;;;;;3.20;2.67;;;21.50;1.00;;;;;;5156208;28;20144;-74
2023/06/27 07:42:17;;;;;;;6.80;2.08;;;21.20;1.00;;;;;;5155007;28;20032;-73
2023/06/27 07:44:48;;;;;;;2.38;2.17;;;21.10;1.00;;;;;;5106893;28;20104;-74
2023/06/27 07:47:22;;;;;;;2.78;2.10;;;21.00;80.00;;;;;;5161772;28;20036;-74
2023/06/27 07:49:57;;;;;;;3.92;2.63;;;21.00;99.90;;;;;;5189289;28;20894;-74
2023/06/27 07:52:30;;;;;;;2.88;2.35;;;20.90;1.00;;;;;;5166675;28;20146;-75
2023/06/27 07:55:01;;;;;;;2.58;1.92;;;20.40;1.00;;;;;;5170663;28;20043;-74
2023/06/27 07:57:32;;;;;;;4.10;2.55;;;19.70;1.00;;;;;;5155916;28;20571;-74
2023/06/27 08:00:04;;;;;;;3.90;2.55;;;18.90;99.90;;;;;;5101497;28;20041;-73
2023/06/27 08:02:35;;;;;;;5.38;2.67;;;18.50;99.90;;;;;;5174476;28;20036;-73
2023/06/27 08:05:07;;;;;;;5.15;3.17;;;18.30;99.90;;;;;;5169238;28;20056;-73
2023/06/27 08:07:39;;;;;;;3.47;2.55;;;18.10;99.90;;;;;;5168621;28;20035;-73
2023/06/27 08:10:15;;;;;;;6.25;3.72;;;18.10;99.90;;;;;;5119114;28;20106;-72
2023/06/27 08:12:46;;;;;;;2.90;2.55;;;18.10;99.90;;;;;;5103238;29;20042;-72
2023/06/27 08:15:19;;;;;;;3.83;2.80;;;18.30;99.90;;;;;;5100591;28;20042;-73
2023/06/27 08:17:50;;;;;;;3.03;2.78;;;18.60;99.90;;;;;;5102488;29;20220;-73
2023/06/27 08:20:21;;;;;;;3.28;2.60;;;18.80;77.20;;;;;;5168386;28;20039;-73
2023/06/27 08:22:52;;;;;;;3.15;2.63;;;19.00;24.60;;;;;;5110542;28;20209;-72
2023/06/27 08:25:26;;;;;;;3.28;2.50;;;19.00;1.00;;;;;;5102087;29;20031;-73
2023/06/27 08:28:00;;;;;;;4.47;3.17;;;18.90;1.00;;;;;;5154642;28;20078;-73
2023/06/27 08:30:31;;;;;;;3.97;2.35;;;18.90;18.60;;;;;;5163525;28;20204;-73
2023/06/27 08:33:07;;;;;;;3.17;2.33;;;18.80;1.00;;;;;;5170894;28;20102;-73
2023/06/27 08:35:43;;;;;;;4.50;3.00;;;18.90;1.00;;;;;;5152296;28;20032;-72
2023/06/27 08:38:17;;;;;;;4.38;3.75;;;19.00;1.00;;;;;;5103254;29;20032;-73
2023/06/27 08:40:56;;;;;;;4.85;2.90;;;19.20;1.00;;;;;;5168909;28;20031;-73
2023/06/27 08:43:30;;;;;;;3.00;2.80;;;19.30;1.00;;;;;;5174231;28;20106;-73
2023/06/27 08:46:07;;;;;;;4.53;3.13;;;19.30;1.00;;;;;;5120201;29;20035;-73
2023/06/27 08:48:43;;;;;;;4.60;2.58;;;19.30;1.00;;;;;;5122080;29;20170;-74
2023/06/27 08:51:18;;;;;;;3.83;3.20;;;19.30;1.00;;;;;;5119014;29;20053;-75
2023/06/27 08:53:57;;;;;;;3.97;2.78;;;19.40;1.00;;;;;;5121989;29;20031;-74
2023/06/27 08:56:29;;;;;;;8.07;3.42;;;19.60;1.00;;;;;;5099968;29;20102;-73
2023/06/27 08:59:08;;;;;;;3.28;2.47;;;19.70;1.00;;;;;;5152681;28;20225;-74
2023/06/27 09:01:40;;;;;;;3.15;2.60;;;19.80;1.00;;;;;;5179502;28;20174;-73
2023/06/27 09:04:12;;;;;;;5.80;2.40;;;19.80;1.00;;;;;;5097348;28;20041;-73
2023/06/27 09:06:46;;;;;;;5.22;2.83;;;19.90;1.00;;;;;;5150338;28;20053;-73
2023/06/27 09:09:17;;;;;;;4.67;3.20;;;19.80;1.00;;;;;;5197253;28;20439;-74
2023/06/27 09:11:52;;;;;;;3.40;2.80;;;19.70;1.00;;;;;;5194243;28;20306;-74
2023/06/27 09:14:23;;;;;;;3.55;3.13;;;19.60;1.00;;;;;;5166580;28;20039;-75
2023/06/27 09:16:55;;;;;;;3.25;2.67;;;19.00;92.70;;;;;;5154887;28;20394;-75
2023/06/27 09:19:27;;;;;;;4.28;3.00;;;18.40;99.90;;;;;;5102925;28;20028;-75
2023/06/27 09:22:02;;;;;;;4.03;3.15;;;17.80;99.90;;;;;;5192444;28;20057;-75
2023/06/27 09:24:35;;;;;;;5.07;3.60;;;17.40;99.90;;;;;;5159869;28;20045;-75
2023/06/27 09:27:27;;;;;;;7.35;3.35;;;17.10;99.90;;;;;;5137472;28;20045;-75
2023/06/27 09:30:03;;;;;;;6.65;3.33;;;16.90;99.90;;;;;;5152607;28;20043;-75
2023/06/27 09:32:52;;;;;;;3.97;3.20;;;16.80;99.90;;;;;;5146426;28;20311;-74
2023/06/27 09:35:31;;;;;;;5.00;3.40;;;16.70;99.90;;;;;;5102838;28;20338;-75
2023/06/27 09:38:11;;;;;;;3.35;3.05;;;16.60;99.90;;;;;;5165219;28;20321;-76
2023/06/27 09:40:42;;;;;;;4.35;3.40;;;16.60;99.90;;;;;;5170097;28;20038;-76
2023/06/27 09:43:15;;;;;;;5.25;3.55;;;16.60;99.90;;;;;;5161417;28;20351;-75
2023/06/27 09:45:59;;;;;;;5.07;4.00;;;16.70;99.90;;;;;;5083550;29;20027;-76
2023/06/27 09:48:30;;;;;;;4.47;3.70;;;16.80;99.90;;;;;;5167999;28;20249;-76
2023/06/27 09:51:03;;;;;;;6.65;4.53;;;16.80;99.90;;;;;;5160148;28;20044;-76
2023/06/27 09:53:37;;;;;;;6.22;3.67;;;17.00;99.90;;;;;;5163924;28;20073;-74
2023/06/27 09:56:12;;;;;;;4.18;3.72;;;17.00;99.90;;;;;;5159467;28;20633;-76
2023/06/27 09:58:43;;;;;;;6.40;3.65;;;17.00;99.90;;;;;;5110347;28;20226;-76
2023/06/27 10:01:14;;;;;;;4.28;3.35;;;17.00;99.90;;;;;;5096571;29;20302;-74
2023/06/27 10:03:48;;;;;;;3.83;3.17;;;17.00;99.90;;;;;;5158638;28;20143;-73
2023/06/27 10:06:20;;;;;;;;;;;16.90;99.90;;;;;;5174824;28;20088;-74
2023/06/27 10:08:51;;;;;;;5.25;3.80;;;16.90;99.90;;;;;;5164839;28;19921;-73
2023/06/27 10:11:27;;;;;;;4.78;3.55;;;17.00;99.90;;;;;;5097949;28;20035;-74
2023/06/27 10:13:59;;;;;;;3.67;3.35;;;17.00;99.90;;;;;;5108263;29;20042;-75
2023/06/27 10:16:33;;;;;;;6.00;3.75;;;17.10;99.90;;;;;;5095995;28;20285;-76
2023/06/27 10:19:08;;;;;;;4.60;4.00;;;17.10;99.90;;;;;;5163589;28;20038;-77
2023/06/27 10:21:42;;;;;;;5.32;3.35;;;17.10;99.90;;;;;;5103476;28;20289;-76
2023/06/27 10:24:14;;;;;;;4.68;4.03;;;17.10;99.90;;;;;;5092326;28;20046;-75
2023/06/27 10:26:58;;;;;;;5.63;3.75;;;16.90;99.90;;;;;;5100482;29;20036;-76
2023/06/27 10:29:38;;;;;;;3.55;3.25;;;16.90;99.90;;;;;;5086522;29;20252;-76
2023/06/27 10:32:10;;;;;;;3.67;3.38;;;16.90;99.90;;;;;;5090520;29;20044;-75
2023/06/27 10:34:43;;;;;;;4.18;3.53;;;16.90;99.90;;;;;;5098006;29;20041;-76
2023/06/27 10:37:27;;;;;;;5.85;4.35;;;17.10;99.90;;;;;;5098040;29;20240;-76
2023/06/27 10:40:03;;;;;;;3.70;3.33;;;17.20;99.90;;;;;;5158485;28;20032;-75
2023/06/27 10:42:38;;;;;;;4.00;3.60;;;17.20;99.90;;;;;;5098776;28;20031;-75
2023/06/27 10:45:16;;;;;;;3.83;3.22;;;17.10;99.90;;;;;;5166387;28;20050;-75
2023/06/27 10:47:47;;;;;;;11.10;3.28;;;17.20;99.90;;;;;;5099726;28;20218;-75
2023/06/27 10:50:22;;;;;;;4.25;3.63;;;17.30;99.90;;;;;;5164849;28;20035;-75
2023/06/27 10:53:06;;;;;;;4.85;3.42;;;17.30;99.90;;;;;;5098051;29;20035;-75
2023/06/27 10:55:39;;;;;;;3.80;3.05;;;17.50;99.90;;;;;;5097784;28;20036;-75
2023/06/27 10:58:15;;;;;;;5.30;3.05;;;17.60;99.90;;;;;;5157269;28;20222;-76
2023/06/27 11:00:51;;;;;;;3.60;3.03;;;17.70;99.90;;;;;;5094329;29;20313;-74
2023/06/27 11:03:32;;;;;;;3.60;2.70;;;17.90;56.90;;;;;;5098458;29;20316;-75
2023/06/27 11:06:04;;;;;;;3.70;2.40;;;18.10;1.00;;;;;;5178764;28;20269;-75
2023/06/27 11:08:40;;;;;;;3.05;2.20;;;18.30;1.00;;;;;;5156862;28;20037;-76
2023/06/27 11:11:16;;;;;;;2.67;2.30;;;18.70;1.00;;;;;;5102245;28;20208;-76
2023/06/27 11:13:51;;;;;;;4.15;3.05;;;19.20;1.00;;;;;;5165847;28;20045;-74
2023/06/27 11:16:26;;;;;;;2.22;2.03;;;19.70;1.00;;;;;;5103375;28;20231;-75
2023/06/27 11:18:57;;;;;;;2.65;2.45;;;19.80;1.00;;;;;;5098791;29;20036;-75
2023/06/27 11:21:31;;;;;;;4.13;2.05;;;20.10;1.00;;;;;;5180660;28;20040;-74
2023/06/27 11:24:06;;;;;;;2.63;1.65;;;20.80;99.90;;;;;;5098055;29;20032;-75
2023/06/27 11:26:48;;;;;;;;;;;21.90;1.00;;;;;;5105343;29;20023;-76
2023/06/27 11:29:20;;;;;;;2.72;2.40;;;22.60;1.00;;;;;;5109303;29;19913;-73
2023/06/27 11:31:56;;;;;;;2.97;2.40;;;21.90;1.00;;;;;;5110299;29;20043;-74
2023/06/27 11:34:28;;;;;;;2.65;1.95;;;21.00;1.00;;;;;;5181212;28;20031;-74
2023/06/27 11:36:59;;;;;;;4.07;2.50;;;20.30;75.20;;;;;;5175531;28;20039;-73
2023/06/27 11:39:37;;;;;;;2.60;2.20;;;19.80;1.00;;;;;;5163412;28;20039;-74
2023/06/27 11:42:08;;;;;;;3.05;2.38;;;19.10;1.00;;;;;;5099840;29;20036;-73
2023/06/27 11:44:42;;;;;;;2.88;2.63;;;18.50;14.80;;;;;;5099477;29;20028;-73
2023/06/27 11:47:18;;;;;;;2.85;2.60;;;18.30;99.90;;;;;;5096863;29;20644;-74
2023/06/27 11:49:49;;;;;;;3.30;2.85;;;18.00;99.90;;;;;;5098372;29;20042;-73
2023/06/27 11:52:30;;;;;;;3.40;3.03;;;17.80;99.90;;;;;;5099489;29;20035;-72
2023/06/27 11:55:04;;;;;;;4.60;3.05;;;17.80;99.90;;;;;;5099517;29;20047;-75
2023/06/27 11:57:48;;;;;;;3.38;2.88;;;17.90;99.90;;;;;;5099268;29;20040;-76
2023/06/27 12:00:25;;;;;;;3.00;2.50;;;18.30;99.90;;;;;;5178706;28;20050;-75
2023/06/27 12:03:07;;;;;;;4.00;2.60;;;18.70;94.20;;;;;;5098625;29;20035;-76
2023/06/27 12:05:44;;;;;;;4.03;2.60;;;19.20;1.00;;;;;;5191668;28;20044;-75
2023/06/27 12:08:25;;;;;;;5.60;1.98;;;19.80;1.00;;;;;;5176299;28;20043;-74
2023/06/27 12:11:00;;;;;;;2.20;1.70;;;20.10;1.00;;;;;;5097705;29;20050;-74
2023/06/27 12:13:39;;;;;;;7.97;2.22;;;20.30;99.90;;;;;;5145149;28;20070;-74
2023/06/27 12:16:33;;;;;;;4.10;1.95;;;20.60;99.90;;;;;;5090099;28;20030;-74
2023/06/27 12:19:11;;;;;;;2.92;2.30;;;21.00;1.00;;;;;;5154657;28;20046;-76
2023/06/27 12:21:47;;;;;;;3.75;2.00;;;21.30;1.00;;;;;;5111311;29;20035;-75
2023/06/27 12:24:20;;;;;;;4.88;1.90;;;21.80;1.00;;;;;;5182854;28;20518;-74
2023/06/27 12:26:51;;;;;;;4.50;2.28;;;22.10;1.00;;;;;;5184514;28;20301;-75
2023/06/27 12:29:22;;;;;;;3.40;2.00;;;21.80;1.00;;;;;;5103919;29;20340;-75
2023/06/27 12:31:53;;;;;;;2.78;2.13;;;21.70;1.00;;;;;;5099191;29;20249;-76
2023/06/27 12:34:27;;;;;;;2.65;1.70;;;21.40;16.50;;;;;;5101499;28;20020;-75
2023/06/27 12:36:59;;;;;;;3.13;2.38;;;21.20;99.90;;;;;;5184190;28;20036;-77
2023/06/27 12:39:30;;;;;;;2.08;1.83;;;20.90;1.00;;;;;;5102154;28;20062;-76
2023/06/27 12:42:03;;;;;;;3.90;2.42;;;21.50;1.00;;;;;;5101538;29;20039;-76
2023/06/27 12:44:35;;;;;;;7.10;2.00;;;21.90;1.00;;;;;;5121318;28;20043;-75
2023/06/27 12:47:06;;;;;;;2.85;2.20;;;21.70;1.00;;;;;;5168163;28;20040;-74
2023/06/27 12:49:39;;;;;;;2.58;2.10;;;21.60;99.90;;;;;;5105769;28;20149;-74
2023/06/27 12:52:10;;;;;;;2.03;1.50;;;21.80;99.90;;;;;;5102213;29;20020;-74
2023/06/27 12:54:41;;;;;;;3.00;2.08;;;22.00;1.00;;;;;;5102934;29;20098;-74
2023/06/27 12:57:12;;;;;;;2.53;2.03;;;22.10;1.00;;;;;;5165481;28;20059;-73
2023/06/27 12:59:44;;;;;;;2.58;1.85;;;22.10;1.00;;;;;;5108750;29;20027;-75
2023/06/27 13:02:18;;;;;;;1.85;1.50;;;22.30;1.00;;;;;;5107010;28;20050;-73
2023/06/27 13:04:49;;;;;;;;;;;22.40;1.00;;;;;;5118392;28;20049;-74
2023/06/27 13:07:23;;;;;;;3.42;2.08;;;22.20;1.00;;;;;;5175637;28;19903;-73
2023/06/27 13:09:56;;;;;;;4.40;1.95;;;21.90;1.00;;;;;;5117951;29;20028;-75
2023/06/27 13:12:30;;;;;;;3.90;1.80;;;21.80;1.00;;;;;;5167065;28;20043;-73
2023/06/27 13:15:02;;;;;;;3.90;2.22;;;21.70;99.90;;;;;;5101353;29;20036;-74
2023/06/27 13:17:33;;;;;;;1.85;1.48;;;21.50;99.90;;;;;;5099398;29;20235;-73
2023/06/27 13:20:05;;;;;;;2.03;1.67;;;21.40;1.00;;;;;;5100401;29;20038;-72
2023/06/27 13:22:39;;;;;;;2.15;1.63;;;21.40;5.30;;;;;;5166915;28;20462;-74
2023/06/27 13:25:12;;;;;;;3.40;2.63;;;21.20;99.90;;;;;;5103352;29;20036;-74
2023/06/27 13:27:46;;;;;;;2.88;2.08;;;21.10;1.00;;;;;;5106043;29;20019;-74
2023/06/27 13:30:20;;;;;;;1.70;1.60;;;21.40;99.90;;;;;;5108515;28;20039;-74
2023/06/27 13:32:53;;;;;;;2.17;1.65;;;21.30;99.90;;;;;;5172546;28;20055;-77
2023/06/27 13:35:24;;;;;;;6.45;1.92;;;21.20;1.00;;;;;;5167097;28;20035;-76